• Join FlightAware (Why Join?)
  • Login
  • US Flag 
05:16AM EDT


 

Airport Tracker/Info


-or-


 

Live Flight TrackerFlight Track Log ✈ N266PD ✈ 24-Nov-2013 ✈ KFXE - KGNV

Flight Track Log - Related Links

Times and Time Zones

All times are in EST time to prevent confusion due to time zone crossing. See the N266PD flight status page for this flight to view local times or setup timezone preferences in your user account.

Time Position Orientation Groundspeed Altitude Reporting Facility
EST Latitude Longitude Course Direction KTS MPH feet Rate Location/Type
06:31PM 26.2332 -80.1916 332° Northwest  Level Estimated
06:32PM 26.2691 -80.2124 332° Northwest  Level Estimated
06:33PM 26.3050 -80.2333 332° Northwest  Level Estimated
06:34PM 26.3409 -80.2542 332° Northwest  Level Estimated
06:35PM 26.3769 -80.2751 332° Northwest  Level Estimated
06:36PM 26.4128 -80.2960 332° Northwest  Level Estimated
06:37PM 26.4487 -80.3169 332° Northwest  Level Estimated
06:38PM 26.4846 -80.3379 332° Northwest  Level Estimated
06:39PM 26.5205 -80.3588 332° Northwest  Level Estimated
06:40PM 26.5564 -80.3798 332° Northwest  Level Estimated
06:41PM 26.5922 -80.4007 332° Northwest  Level Estimated
06:42PM 26.6281 -80.4217 332° Northwest  Level Estimated
06:43PM 26.6640 -80.4427 332° Northwest  Level Estimated
06:44PM 26.6999 -80.4638 332° Northwest  Level Estimated
06:45PM 26.7358 -80.4848 332° Northwest  Level Estimated
06:46PM 26.7716 -80.5058 332° Northwest  Level Estimated
06:47PM 26.8075 -80.5269 332° Northwest  Level Estimated
06:48PM 26.8434 -80.5480 332° Northwest  Level Estimated
06:49PM 26.8792 -80.5690 332° Northwest  Level Estimated
06:50PM 26.9151 -80.5901 332° Northwest  Level Estimated
06:50PM 26.2097 -80.1844 332° Northwest 128 147 1,400  Level Miami Center
06:50PM 26.2214 -80.2125 295° West 138 159 1,900 600 Climbing Miami Center
06:51PM 26.9510 -80.6112 332° Northwest  Level Estimated
06:51PM 26.2353 -80.2522 291° West 147 169 2,500  Level Miami Center
06:52PM 26.9868 -80.6324 332° Northwest  Level Estimated
06:52PM 26.2550 -80.2967 296° West 151 174 3,000  Level Miami Center
06:53PM 27.0227 -80.6535 332° Northwest  Level Estimated
06:54PM 27.0585 -80.6747 332° Northwest  Level Estimated
06:54PM 26.2881 -80.3117 338° Northwest 121 139 3,700  Level Miami Center
06:55PM 27.0944 -80.6958 332° Northwest  Level Estimated
06:55PM 26.3214 -80.3150 355° North 123 142 4,200  Level Miami Center
06:57PM 26.3925 -80.3549 333° Northwest  Level Estimated
07:04PM 26.6545 -80.4760 338° Northwest  Level FlightAware Approximate
07:05PM 26.6919 -80.4934 338° Northwest  Level FlightAware Approximate
07:06PM 26.7293 -80.5107 337° Northwest  Level FlightAware Approximate
07:07PM 26.7668 -80.5281 337° Northwest  Level FlightAware Approximate
07:07PM 26.8128 -80.3853 337° Northwest 154 177 6,100  Level Miami Center
07:08PM 26.8042 -80.5455 337° Northwest  Level FlightAware Approximate
07:08PM 26.8606 -80.3936 351° North 154 177 6,000  Level Miami Center
07:09PM 26.8416 -80.5629 337° Northwest  Level FlightAware Approximate
07:09PM 26.9000 -80.4064 344° North 159 183 5,600  Level Miami Center
07:10PM 26.8790 -80.5803 337° Northwest  Level FlightAware Approximate
07:10PM 26.9392 -80.4169 346° North 159 183 5,200  Level Miami Center
07:11PM 26.9164 -80.5977 337° Northwest  Level FlightAware Approximate
07:11PM 26.9828 -80.4278 348° North 159 183 5,000  Level Miami Center
07:12PM 26.9538 -80.6151 337° Northwest  Level FlightAware Approximate
07:12PM 27.0286 -80.4408 346° North 159 183 5,000  Level Miami Center
07:13PM 27.0678 -80.4536 344° North 154 177 5,000 -60 Level Miami Center
07:14PM 27.1094 -80.4642 347° North 148 170 4,900  Descending Miami Center
07:15PM 27.1425 -80.4769 341° North 141 162 5,000  Climbing Miami Center
07:16PM 27.1858 -80.4900 345° North 142 163 4,900 -60 Descending Miami Center
07:17PM 27.2250 -80.5144 331° Northwest 152 175 4,900  Level Miami Center
07:18PM 27.2619 -80.5392 329° Northwest 157 181 5,000  Climbing Miami Center
07:19PM 27.2947 -80.5611 329° Northwest 162 186 5,000  Level Miami Center
07:20PM 27.3317 -80.5856 330° Northwest 162 186 5,000  Level Miami Center
07:21PM 27.3747 -80.6153 328° Northwest 167 192 5,000 -60 Level Miami Center
07:22PM 27.4075 -80.6467 320° Northwest 167 192 4,900 -180 Descending Miami Center
07:23PM 27.4419 -80.6828 317° Northwest 161 185 4,700 -240 Descending Miami Center
07:24PM 27.4747 -80.7119 322° Northwest 161 185 4,500 -240 Descending Miami Center
07:25PM 27.5156 -80.7461 323° Northwest 161 185 4,300 -240 Descending Miami Center
07:26PM 27.5522 -80.7731 327° Northwest 161 185 4,100 -180 Descending Miami Center
07:27PM 27.5889 -80.8072 320° Northwest 161 185 4,000 -60 Descending Miami Center
07:28PM 27.6236 -80.8367 323° Northwest 166 191 4,000  Level Miami Center
07:29PM 27.6583 -80.8636 326° Northwest 156 180 4,000  Level Miami Center
07:30PM 27.6889 -80.8928 320° Northwest 156 180 4,000  Level Miami Center
07:31PM 27.7233 -80.9244 321° Northwest 156 180 4,000  Level Miami Center
07:32PM 27.7600 -80.9564 322° Northwest 156 180 4,000  Level Miami Center
07:33PM 27.7947 -80.9856 323° Northwest 156 180 4,000  Level Miami Center
07:35PM 27.8500 -81.0333 323° Northwest 161 185 4,100  Climbing Orlando TRACON
07:36PM 27.9000 -81.0667 329° Northwest 160 184 4,000 -60 Descending Orlando TRACON
07:37PM 27.9167 -81.1000 300° West 163 188 4,000  Level Orlando TRACON
07:37PM 27.9500 -81.1333 319° Northwest 162 186 4,000  Level Orlando TRACON
07:38PM 27.9833 -81.1500 336° Northwest 161 185 4,000  Level Orlando TRACON
07:39PM 28.0167 -81.1833 319° Northwest 161 185 4,000  Level Orlando TRACON
07:40PM 28.0500 -81.2167 319° Northwest 175 201 4,000  Level Orlando TRACON
07:41PM 28.0667 -81.2833 286° West 181 208 4,000  Level Orlando TRACON
07:42PM 28.0833 -81.3333 291° West 179 206 4,000  Level Orlando TRACON
07:43PM 28.0833 -81.3833 270° West 177 204 4,000  Level Orlando TRACON
07:44PM 28.1000 -81.4500 286° West 179 206 4,000  Level Orlando TRACON
07:45PM 28.1333 -81.4833 319° Northwest 161 185 4,000  Level Orlando TRACON
07:46PM 28.1667 -81.5000 336° Northwest 160 184 4,000  Level Orlando TRACON
07:47PM 28.2167 -81.5333 330° Northwest 164 189 4,000  Level Orlando TRACON
07:48PM 28.2500 -81.5667 319° Northwest 163 188 4,000  Level Orlando TRACON
07:49PM 28.2833 -81.5833 336° Northwest 163 188 4,000  Level Orlando TRACON
07:50PM 28.3333 -81.6167 330° Northwest 163 188 4,000  Level Orlando TRACON
07:51PM 28.3667 -81.6500 319° Northwest 165 190 4,000  Level Orlando TRACON
07:52PM 28.4000 -81.6667 336° Northwest 165 190 4,000  Level Orlando TRACON
07:53PM 28.4333 -81.7000 319° Northwest 168 193 4,000  Level Orlando TRACON
07:54PM 28.4833 -81.7167 344° North 171 197 4,000  Level Orlando TRACON
07:55PM 28.5167 -81.7500 319° Northwest 169 194 4,000  Level Orlando TRACON
07:57PM 28.5856 -81.7908 333° Northwest 170 196 4,100  Climbing Jacksonville Center
07:59PM 28.6736 -81.8561 327° Northwest 173 199 4,100  Level Jacksonville Center
08:00PM 28.7158 -81.8864 328° Northwest 173 199 4,100  Level Jacksonville Center
08:01PM 28.7619 -81.9192 328° Northwest 174 200 4,100  Level Jacksonville Center
08:02PM 28.8039 -81.9494 328° Northwest 174 200 4,100  Level Jacksonville Center
08:03PM 28.8458 -81.9753 332° Northwest 174 200 4,100  Level Jacksonville Center
08:04PM 28.8897 -81.9914 342° North 166 191 4,100  Level Jacksonville Center
08:05PM 28.9336 -82.0075 342° North 165 190 4,100 -60 Level Jacksonville Center
08:06PM 28.9775 -82.0214 345° North 166 191 4,000 -60 Descending Jacksonville Center
08:07PM 29.0236 -82.0353 345° North 165 190 4,000  Level Jacksonville Center
08:08PM 29.0656 -82.0492 344° North 162 186 4,000  Level Jacksonville Center
08:09PM 29.1136 -82.0631 346° North 164 189 4,000  Level Jacksonville Center
08:10PM 29.1450 -82.0794 335° Northwest 166 191 4,000  Level Jacksonville Center
08:11PM 29.1908 -82.0933 345° North 165 190 4,000  Level Jacksonville Center
08:12PM 29.2433 -82.1097 345° North 163 188 4,000  Level Jacksonville Center
08:13PM 29.2850 -82.1258 341° North 161 185 4,000  Level Jacksonville Center
08:14PM 29.3292 -82.1447 340° North 161 185 4,000  Level Jacksonville Center
08:15PM 29.3708 -82.1633 339° North 165 190 4,000  Level Jacksonville Center
08:16PM 29.4189 -82.1772 346° North 163 188 4,000 -60 Level Jacksonville Center
08:17PM 29.4628 -82.1936 342° North 166 191 3,900 -360 Descending Jacksonville Center
08:18PM 29.5047 -82.2100 341° North 180 207 3,400 -540 Descending Jacksonville Center
08:19PM 29.5508 -82.2336 336° Northwest 179 206 2,900 -480 Descending Jacksonville Center
08:20PM 29.5906 -82.2525 338° Northwest 164 189 2,500 -600 Descending Jacksonville Center
08:21PM 29.6261 -82.2667 341° North 139 160 1,800 -600 Descending Jacksonville Center
08:22PM 29.6597 -82.2783 343° North 127 146 1,300 -480 Descending Jacksonville Center
08:23PM 29.6744 -82.3022 305° West 84 97 900 -300 Descending Jacksonville Center
08:24PM 29.6889 -82.2950 23° Northeast 73 84 700 -240 Descending Jacksonville Center